Time;durP1;ratioP1;P1;durP2;ratioP2;P2;SDS_P1;SDS_P2;PMS_P1;PMS_P2;Temp;Humidity;BMP_temperature;BMP_pressure;BME280_temperature;BME280_humidity;BME280_pressure;Samples;Min_cycle;Max_cycle;Signal;HPM_P1;HPM_P2
2023/02/14 00:00:38;;;;;;;11.32;8.90;;;17.40;40.60;;;;;;5032487;28;20220;-66
2023/02/14 00:03:06;;;;;;;11.70;9.55;;;17.40;40.60;;;;;;5032239;28;20242;-66
2023/02/14 00:05:33;;;;;;;12.50;9.68;;;17.40;40.60;;;;;;5014751;28;20227;-66
2023/02/14 00:08:00;;;;;;;14.18;9.18;;;17.40;40.60;;;;;;5032542;28;20196;-66
2023/02/14 00:10:27;;;;;;;14.18;10.18;;;17.40;40.60;;;;;;5032238;28;20282;-66
2023/02/14 00:12:54;;;;;;;12.88;9.70;;;17.40;40.60;;;;;;5032413;28;20188;-66
2023/02/14 00:15:23;;;;;;;12.63;9.88;;;17.40;40.60;;;;;;5032342;28;20220;-66
2023/02/14 00:17:54;;;;;;;12.60;9.38;;;17.40;40.60;;;;;;5031957;28;20227;-66
2023/02/14 00:20:21;;;;;;;12.57;9.20;;;17.40;40.60;;;;;;5032316;28;20306;-67
2023/02/14 00:22:49;;;;;;;12.75;9.45;;;17.40;40.60;;;;;;5032158;28;20247;-66
2023/02/14 00:25:17;;;;;;;14.70;9.48;;;17.40;40.60;;;;;;5031540;28;20216;-66
2023/02/14 00:27:44;;;;;;;14.00;10.00;;;17.40;40.60;;;;;;5032458;28;20189;-66
2023/02/14 00:30:13;;;;;;;12.75;9.55;;;17.30;40.50;;;;;;5031934;28;20216;-66
2023/02/14 00:32:41;;;;;;;14.70;9.95;;;17.30;40.50;;;;;;5032222;28;20270;-66
2023/02/14 00:35:11;;;;;;;12.75;9.40;;;17.40;40.60;;;;;;5032236;28;20269;-66
2023/02/14 00:37:39;;;;;;;11.85;9.15;;;17.30;40.50;;;;;;5031903;28;20185;-66
2023/02/14 00:40:07;;;;;;;11.48;9.50;;;17.30;40.50;;;;;;5032049;28;20260;-66
2023/02/14 00:42:34;;;;;;;15.18;9.73;;;17.30;40.50;;;;;;5014346;28;20239;-66
2023/02/14 00:45:02;;;;;;;12.35;9.35;;;17.30;40.50;;;;;;4996984;28;20271;-66
2023/02/14 00:47:29;;;;;;;14.90;10.02;;;17.30;40.50;;;;;;5031501;28;20220;-66
2023/02/14 00:50:01;;;;;;;12.80;9.73;;;17.30;40.50;;;;;;5032053;28;20262;-66
2023/02/14 00:52:30;;;;;;;12.90;9.50;;;17.30;40.50;;;;;;5033885;28;20572;-66
2023/02/14 00:54:57;;;;;;;11.70;9.10;;;17.30;40.50;;;;;;5035972;28;20220;-66
2023/02/14 00:57:24;;;;;;;13.50;9.55;;;17.30;40.50;;;;;;5035929;28;20193;-66
2023/02/14 00:59:52;;;;;;;13.65;9.90;;;17.30;40.50;;;;;;5035914;28;20216;-66
2023/02/14 01:02:19;;;;;;;11.88;9.38;;;17.30;40.50;;;;;;5035542;28;20235;-66
2023/02/14 01:04:46;;;;;;;13.40;9.43;;;17.30;40.50;;;;;;5034981;28;20630;-66
2023/02/14 01:07:13;;;;;;;12.60;9.13;;;17.30;40.50;;;;;;5035594;28;20278;-66
2023/02/14 01:09:42;;;;;;;12.45;9.88;;;17.30;40.50;;;;;;5035932;28;20224;-66
2023/02/14 01:12:09;;;;;;;12.95;9.80;;;17.20;40.40;;;;;;5035671;28;20254;-66
2023/02/14 01:14:37;;;;;;;12.23;9.40;;;17.30;40.50;;;;;;5035430;28;20216;-66
2023/02/14 01:17:04;;;;;;;13.10;9.45;;;17.30;40.50;;;;;;5035479;28;20230;-66
2023/02/14 01:19:31;;;;;;;13.50;9.18;;;17.20;40.40;;;;;;5017920;28;20251;-66
2023/02/14 01:21:58;;;;;;;12.60;9.45;;;17.20;40.40;;;;;;5035613;28;20196;-66
2023/02/14 01:24:25;;;;;;;14.50;9.98;;;17.30;40.50;;;;;;5035141;28;20605;-66
2023/02/14 01:26:54;;;;;;;12.88;9.50;;;17.20;40.40;;;;;;5035327;28;20223;-66
2023/02/14 01:29:22;;;;;;;14.15;9.50;;;17.20;40.40;;;;;;5035482;28;20216;-66
2023/02/14 01:31:49;;;;;;;12.88;9.23;;;17.20;40.40;;;;;;5035043;28;20729;-66
2023/02/14 01:34:16;;;;;;;15.55;10.20;;;17.20;40.40;;;;;;5035003;28;20828;-66
2023/02/14 01:36:43;;;;;;;13.45;9.45;;;17.20;40.40;;;;;;5034958;28;20724;-66
2023/02/14 01:39:12;;;;;;;11.93;9.38;;;17.20;40.40;;;;;;5035100;28;20216;-67
2023/02/14 01:41:41;;;;;;;11.15;9.13;;;17.20;40.40;;;;;;5035126;28;20243;-66
2023/02/14 01:44:41;;;;;;;11.77;8.43;;;17.20;40.40;;;;;;5034682;28;20274;-66
2023/02/14 01:47:11;;;;;;;11.80;9.00;;;17.20;40.40;;;;;;5034531;28;20275;-66
2023/02/14 01:49:42;;;;;;;11.35;9.20;;;17.20;40.40;;;;;;5034756;28;20220;-66
2023/02/14 01:52:15;;;;;;;12.05;9.18;;;17.20;40.40;;;;;;5034886;28;20188;-66
2023/02/14 01:54:47;;;;;;;13.88;9.60;;;17.20;40.40;;;;;;5034940;28;20270;-66
2023/02/14 01:57:19;;;;;;;11.95;9.15;;;17.20;40.40;;;;;;5034483;28;20185;-66
2023/02/14 01:59:51;;;;;;;12.02;8.63;;;17.20;40.40;;;;;;5034928;28;20274;-66
2023/02/14 02:02:22;;;;;;;13.25;9.43;;;17.10;40.30;;;;;;5034698;28;20189;-66
2023/02/14 02:04:53;;;;;;;12.95;9.48;;;17.10;40.30;;;;;;5034175;28;20220;-66
2023/02/14 02:07:24;;;;;;;13.77;10.25;;;17.10;40.30;;;;;;5034577;28;20209;-66
2023/02/14 02:09:55;;;;;;;12.95;8.95;;;17.20;40.40;;;;;;5035001;28;20224;-66
2023/02/14 02:12:22;;;;;;;11.43;8.68;;;17.10;40.30;;;;;;5034268;28;20193;-66
2023/02/14 02:14:52;;;;;;;11.52;8.68;;;17.10;40.30;;;;;;5034478;28;20216;-66
2023/02/14 02:17:30;;;;;;;15.50;9.45;;;17.10;40.30;;;;;;5034099;28;20306;-66
2023/02/14 02:20:31;;;;;;;14.57;9.40;;;17.10;40.30;;;;;;5033814;28;20269;-66
2023/02/14 02:23:34;;;;;;;12.63;9.73;;;17.10;40.30;;;;;;5034017;28;20200;-66
2023/02/14 02:26:30;;;;;;;13.63;9.48;;;17.10;40.30;;;;;;5020685;28;20224;-66
2023/02/14 02:29:22;;;;;;;12.32;9.10;;;17.10;40.30;;;;;;5020881;28;20200;-66
2023/02/14 02:32:11;;;;;;;12.80;9.73;;;17.10;40.30;;;;;;5031864;28;20196;-66
2023/02/14 02:37:42;;;;;;;14.18;9.48;;;17.10;40.40;;;;;;5130526;27;20989;-67
2023/02/14 02:40:33;;;;;;;10.75;8.68;;;17.10;40.30;;;;;;5130556;28;20757;-67
2023/02/14 02:43:11;;;;;;;12.07;8.25;;;17.10;40.40;;;;;;5130774;27;20189;-67
2023/02/14 02:48:44;;;;;;;13.55;9.10;;;17.10;40.40;;;;;;5105257;27;20199;-67
2023/02/14 02:54:09;;;;;;;12.35;9.05;;;17.00;40.30;;;;;;5130609;28;20188;-66
2023/02/14 02:56:44;;;;;;;12.35;9.18;;;17.00;40.30;;;;;;5129376;27;20211;-66
2023/02/14 02:59:18;;;;;;;11.80;8.98;;;17.00;40.30;;;;;;5130130;27;20180;-67
2023/02/14 03:01:50;;;;;;;13.05;8.68;;;17.00;40.30;;;;;;5130096;27;20276;-66
2023/02/14 03:07:33;;;;;;;13.52;8.68;;;17.00;40.30;;;;;;5130000;28;20272;-67
2023/02/14 03:09:56;;;;;;;11.63;9.02;;;17.00;40.30;;;;;;5129961;28;20219;-67
2023/02/14 03:12:53;;;;;;;11.82;8.80;;;17.00;40.30;;;;;;5129777;27;20231;-67
2023/02/14 03:15:28;;;;;;;13.70;8.93;;;17.00;40.30;;;;;;5119576;27;20217;-66
2023/02/14 03:18:04;;;;;;;12.98;9.10;;;17.00;40.30;;;;;;5109502;28;20185;-67
2023/02/14 03:20:38;;;;;;;13.32;8.80;;;17.00;40.30;;;;;;5109755;28;20213;-67
2023/02/14 03:23:14;;;;;;;13.52;8.90;;;17.00;40.40;;;;;;5109090;28;20211;-67
2023/02/14 03:25:49;;;;;;;12.60;8.55;;;17.00;40.30;;;;;;5109571;28;20212;-67
2023/02/14 03:28:20;;;;;;;11.00;8.57;;;17.00;40.30;;;;;;5109015;28;20616;-66
2023/02/14 03:30:55;;;;;;;16.33;8.25;;;17.00;40.30;;;;;;5109275;28;20623;-66
2023/02/14 03:33:28;;;;;;;12.10;8.85;;;17.00;40.30;;;;;;5109419;28;20185;-67
2023/02/14 03:36:01;;;;;;;11.80;8.73;;;17.00;40.30;;;;;;5123092;28;20720;-67
2023/02/14 03:38:33;;;;;;;14.20;8.48;;;17.00;40.30;;;;;;5129176;27;20191;-67
2023/02/14 03:41:07;;;;;;;10.65;8.45;;;17.00;40.30;;;;;;5129537;27;20265;-67
2023/02/14 03:43:37;;;;;;;12.15;8.20;;;17.00;40.40;;;;;;5129322;27;20205;-67
2023/02/14 03:46:10;;;;;;;12.35;8.27;;;16.90;40.30;;;;;;5129685;27;20212;-67
2023/02/14 03:48:39;;;;;;;14.25;8.57;;;16.90;40.90;;;;;;5117614;27;20182;-66
2023/02/14 03:51:10;;;;;;;11.80;8.10;;;16.90;40.30;;;;;;5115567;28;20701;-67
2023/02/14 03:53:40;;;;;;;11.32;8.18;;;16.90;40.30;;;;;;5115467;28;20197;-66
2023/02/14 03:56:15;;;;;;;12.60;8.57;;;16.90;40.30;;;;;;5100605;28;20271;-67
2023/02/14 03:58:46;;;;;;;12.07;8.75;;;16.90;40.30;;;;;;5095282;28;20254;-67
2023/02/14 04:01:19;;;;;;;13.55;8.52;;;16.90;40.30;;;;;;5095196;28;20768;-67
2023/02/14 04:03:47;;;;;;;12.35;8.77;;;16.90;40.30;;;;;;5094810;28;20190;-67
2023/02/14 04:06:17;;;;;;;13.85;8.05;;;16.90;40.30;;;;;;5094815;28;20272;-67
2023/02/14 04:08:44;;;;;;;12.07;8.50;;;16.90;40.30;;;;;;5095150;28;20186;-66
2023/02/14 04:11:13;;;;;;;11.75;8.10;;;16.90;40.30;;;;;;5093728;28;20214;-66
2023/02/14 04:13:40;;;;;;;15.95;8.15;;;16.90;40.30;;;;;;5094648;28;20190;-67
2023/02/14 04:16:07;;;;;;;11.45;7.97;;;16.90;40.30;;;;;;5106567;28;20250;-67
2023/02/14 04:21:19;;;;;;;10.75;7.65;;;16.90;40.30;;;;;;5115212;28;20211;-67
2023/02/14 04:23:47;;;;;;;13.00;8.48;;;16.90;40.40;;;;;;5114803;28;20655;-66
2023/02/14 04:26:15;;;;;;;12.50;7.85;;;16.90;40.30;;;;;;5115259;28;20221;-66
2023/02/14 04:28:42;;;;;;;12.35;7.78;;;16.90;40.30;;;;;;5114749;28;20591;-67
2023/02/14 04:31:10;;;;;;;10.43;7.32;;;16.90;40.30;;;;;;5115168;28;20217;-66
2023/02/14 04:33:38;;;;;;;11.60;8.35;;;16.90;40.30;;;;;;5114969;28;20185;-66
2023/02/14 04:36:05;;;;;;;11.55;8.27;;;16.90;41.00;;;;;;5102570;28;20312;-66
2023/02/14 04:38:33;;;;;;;10.52;8.25;;;16.90;40.40;;;;;;5094579;28;20198;-66
2023/02/14 04:41:00;;;;;;;13.43;8.10;;;16.90;40.30;;;;;;5094233;28;20218;-67
2023/02/14 04:43:28;;;;;;;14.35;8.75;;;16.90;40.30;;;;;;5094386;28;20812;-67
2023/02/14 04:45:55;;;;;;;13.52;8.40;;;16.90;40.30;;;;;;5094195;28;20260;-66
2023/02/14 04:48:23;;;;;;;11.55;7.55;;;16.80;40.20;;;;;;5094045;28;20568;-66
2023/02/14 04:50:52;;;;;;;11.63;8.40;;;16.80;40.30;;;;;;5094096;28;20218;-67
2023/02/14 04:53:20;;;;;;;12.77;7.90;;;16.80;40.30;;;;;;5093844;28;20686;-67
2023/02/14 04:55:49;;;;;;;10.43;8.15;;;16.80;40.30;;;;;;5100610;28;20638;-67
2023/02/14 04:58:16;;;;;;;10.88;8.15;;;16.80;40.30;;;;;;5113819;28;20231;-66
2023/02/14 05:00:45;;;;;;;12.00;7.53;;;16.80;40.30;;;;;;5113332;28;20266;-66
2023/02/14 05:03:12;;;;;;;11.30;7.45;;;16.80;40.30;;;;;;5114366;28;20321;-67
2023/02/14 05:05:39;;;;;;;11.52;7.93;;;16.80;40.30;;;;;;5114447;28;20213;-67
2023/02/14 05:08:06;;;;;;;9.93;7.40;;;16.80;40.30;;;;;;5114305;28;20245;-67
2023/02/14 05:10:33;;;;;;;13.35;7.28;;;16.80;40.30;;;;;;5114037;28;20217;-66
2023/02/14 05:13:01;;;;;;;12.90;8.15;;;16.80;40.30;;;;;;5113845;28;20197;-66
2023/02/14 05:15:28;;;;;;;11.38;7.68;;;16.80;40.30;;;;;;5108030;28;20237;-67
2023/02/14 05:18:00;;;;;;;10.57;8.13;;;16.80;40.30;;;;;;5093663;28;20213;-67
2023/02/14 05:20:27;;;;;;;11.18;8.02;;;16.80;40.30;;;;;;5093766;28;20213;-67
2023/02/14 05:22:55;;;;;;;10.38;7.65;;;16.80;40.30;;;;;;5093638;28;20183;-67
2023/02/14 05:25:22;;;;;;;10.60;7.85;;;16.80;40.30;;;;;;5093647;28;20220;-66
2023/02/14 05:27:49;;;;;;;13.35;7.53;;;16.80;40.40;;;;;;5093497;28;20253;-67
2023/02/14 05:30:21;;;;;;;9.88;7.50;;;16.70;40.20;;;;;;5093515;28;20267;-67
2023/02/14 05:32:48;;;;;;;11.75;7.53;;;16.80;40.30;;;;;;5093528;28;20197;-67
2023/02/14 05:35:16;;;;;;;10.30;7.70;;;16.80;40.30;;;;;;5097787;28;20333;-67
2023/02/14 05:37:43;;;;;;;11.55;7.75;;;16.80;40.30;;;;;;5113021;27;20697;-66
2023/02/14 05:40:12;;;;;;;10.35;7.70;;;16.80;40.30;;;;;;5113555;28;20217;-67
2023/02/14 05:42:39;;;;;;;12.52;7.97;;;16.70;40.20;;;;;;5113489;28;20277;-67
2023/02/14 05:45:07;;;;;;;11.35;7.72;;;16.70;40.20;;;;;;5113502;28;20266;-66
2023/02/14 05:47:34;;;;;;;10.35;7.85;;;16.80;40.30;;;;;;5113556;28;20189;-66
2023/02/14 05:50:01;;;;;;;9.70;7.65;;;16.80;40.30;;;;;;5113157;28;20259;-67
2023/02/14 05:52:30;;;;;;;9.73;7.53;;;16.80;40.30;;;;;;5113157;28;20193;-67
2023/02/14 05:54:57;;;;;;;13.05;7.63;;;16.80;40.40;;;;;;5109278;28;20264;-66
2023/02/14 05:57:24;;;;;;;12.00;7.25;;;16.80;40.30;;;;;;5092966;28;20274;-66
2023/02/14 05:59:51;;;;;;;10.70;7.05;;;16.80;40.30;;;;;;5092619;28;20648;-67
2023/02/14 06:02:18;;;;;;;8.80;6.97;;;16.80;40.40;;;;;;5092937;28;20190;-66
2023/02/14 06:04:45;;;;;;;9.55;7.13;;;16.90;40.40;;;;;;5092808;28;20239;-66
2023/02/14 06:07:13;;;;;;;9.48;6.88;;;16.90;40.40;;;;;;5092822;28;20536;-67
2023/02/14 06:09:41;;;;;;;8.95;6.70;;;16.90;40.40;;;;;;5092833;28;20190;-67
2023/02/14 06:12:08;;;;;;;9.70;6.63;;;16.90;40.40;;;;;;5092581;28;20237;-67
2023/02/14 06:14:35;;;;;;;9.05;6.63;;;16.90;40.40;;;;;;5092934;28;20190;-67
2023/02/14 06:17:03;;;;;;;9.70;7.32;;;16.90;40.40;;;;;;5113042;28;20209;-67
2023/02/14 06:19:30;;;;;;;9.77;6.75;;;16.90;40.40;;;;;;5113072;28;20185;-67
2023/02/14 06:21:57;;;;;;;9.25;6.60;;;17.00;40.50;;;;;;5113196;28;20217;-67
2023/02/14 06:24:24;;;;;;;11.05;7.07;;;17.00;40.50;;;;;;5112689;28;20625;-67
2023/02/14 06:26:52;;;;;;;7.97;6.50;;;17.00;40.50;;;;;;5113166;28;20213;-67
2023/02/14 06:29:20;;;;;;;9.32;6.75;;;17.00;40.60;;;;;;5112552;28;20182;-67
2023/02/14 06:31:47;;;;;;;11.90;6.85;;;17.00;40.60;;;;;;5113055;28;20213;-66
2023/02/14 06:34:14;;;;;;;8.65;5.80;;;17.10;40.70;;;;;;5112610;28;20188;-66
2023/02/14 06:36:41;;;;;;;8.82;6.45;;;17.10;40.70;;;;;;5092181;28;20306;-67
2023/02/14 06:39:08;;;;;;;8.27;6.80;;;17.10;40.70;;;;;;5092309;28;20262;-67
2023/02/14 06:41:35;;;;;;;8.60;6.13;;;17.10;40.70;;;;;;5092359;28;20664;-66
2023/02/14 06:44:05;;;;;;;10.45;6.78;;;17.10;40.70;;;;;;5092380;28;20186;-67
2023/02/14 06:46:32;;;;;;;8.45;6.43;;;17.20;40.80;;;;;;5092146;28;20702;-66
2023/02/14 06:48:59;;;;;;;9.35;6.53;;;17.20;40.80;;;;;;5092366;28;20244;-67
2023/02/14 06:51:26;;;;;;;8.68;6.90;;;17.20;40.70;;;;;;5092424;28;20222;-67
2023/02/14 06:53:53;;;;;;;10.93;7.47;;;17.20;40.70;;;;;;5092341;28;20190;-67
2023/02/14 06:56:21;;;;;;;13.88;7.50;;;17.20;40.70;;;;;;5109078;28;20213;-67
2023/02/14 06:58:48;;;;;;;13.00;8.32;;;17.20;40.70;;;;;;5112296;28;20213;-67
2023/02/14 07:01:16;;;;;;;13.18;8.23;;;17.30;41.30;;;;;;5112744;28;20262;-67
2023/02/14 07:03:43;;;;;;;13.80;8.40;;;17.30;41.90;;;;;;5112664;28;20235;-67
2023/02/14 07:06:10;;;;;;;10.38;7.32;;;17.30;43.70;;;;;;5112601;28;20224;-67
2023/02/14 07:08:38;;;;;;;11.05;7.25;;;17.30;43.00;;;;;;5112528;28;20195;-66
2023/02/14 07:11:05;;;;;;;12.05;7.20;;;17.30;42.70;;;;;;5112617;28;20682;-67
2023/02/14 07:13:32;;;;;;;10.77;6.65;;;17.30;42.60;;;;;;5112176;28;20186;-67
2023/02/14 07:16:00;;;;;;;9.82;6.63;;;17.30;42.50;;;;;;5096666;28;20222;-67
2023/02/14 07:18:28;;;;;;;11.13;7.47;;;17.40;43.20;;;;;;5092115;28;20218;-67
2023/02/14 07:20:55;;;;;;;13.05;7.07;;;17.40;42.40;;;;;;5091771;28;20706;-67
2023/02/14 07:23:23;;;;;;;10.70;7.47;;;17.40;42.30;;;;;;5094209;28;20243;-67
2023/02/14 07:25:50;;;;;;;11.30;7.40;;;17.40;42.30;;;;;;5099261;28;20283;-67
2023/02/14 07:28:17;;;;;;;10.20;6.68;;;17.50;42.30;;;;;;5096351;28;20244;-66
2023/02/14 07:30:44;;;;;;;11.05;6.85;;;17.40;42.10;;;;;;5102412;28;20270;-67
2023/02/14 07:33:11;;;;;;;11.93;7.15;;;17.50;42.20;;;;;;5116166;28;20231;-67
2023/02/14 07:35:40;;;;;;;9.57;6.45;;;17.50;42.10;;;;;;5114671;28;20225;-67
2023/02/14 07:38:07;;;;;;;12.15;6.97;;;17.50;42.10;;;;;;5116027;28;20225;-67
2023/02/14 07:40:34;;;;;;;14.40;6.75;;;17.50;42.00;;;;;;5096457;28;20767;-67
2023/02/14 07:43:01;;;;;;;9.00;6.20;;;17.50;42.00;;;;;;5116097;28;20591;-67
2023/02/14 07:45:28;;;;;;;11.85;7.03;;;17.60;42.10;;;;;;5115346;28;20213;-67
2023/02/14 07:47:58;;;;;;;10.15;7.03;;;17.60;42.10;;;;;;5110552;28;20194;-67
2023/02/14 07:50:25;;;;;;;13.38;7.35;;;17.60;42.00;;;;;;5098424;28;20218;-67
2023/02/14 07:52:54;;;;;;;14.93;7.63;;;17.60;42.00;;;;;;5100681;28;20193;-67
2023/02/14 07:55:23;;;;;;;12.68;7.75;;;17.60;42.00;;;;;;5101319;28;20895;-67
2023/02/14 07:57:51;;;;;;;26.00;7.53;;;17.60;41.90;;;;;;5103183;28;20236;-66
2023/02/14 08:00:20;;;;;;;15.68;7.90;;;17.60;41.80;;;;;;5099857;28;20221;-67
2023/02/14 08:02:48;;;;;;;12.50;7.38;;;17.50;41.80;;;;;;5103747;27;20251;-68
2023/02/14 08:05:19;;;;;;;15.75;7.97;;;17.60;41.80;;;;;;5099913;28;20211;-67
2023/02/14 08:07:47;;;;;;;12.65;8.43;;;17.60;41.90;;;;;;5095825;28;20185;-67
2023/02/14 08:10:15;;;;;;;12.07;8.80;;;17.60;41.80;;;;;;5114221;28;20659;-67
2023/02/14 08:13:02;;;;;;;15.90;9.10;;;17.60;41.90;;;;;;5105900;28;20194;-67
2023/02/14 08:18:18;;;;;;;15.10;9.18;;;17.60;41.80;;;;;;5104545;28;20593;-67
2023/02/14 08:20:45;;;;;;;15.18;8.35;;;17.60;41.90;;;;;;5093989;28;20250;-67
2023/02/14 08:23:14;;;;;;;16.92;8.45;;;17.60;41.90;;;;;;5093946;28;20183;-67
2023/02/14 08:25:47;;;;;;;11.13;7.85;;;17.60;41.90;;;;;;5091223;28;20626;-67
2023/02/14 08:28:19;;;;;;;12.90;8.52;;;17.60;42.00;;;;;;5096551;28;20331;-68
2023/02/14 08:30:47;;;;;;;13.00;8.40;;;17.60;42.20;;;;;;5109908;28;20619;-67
2023/02/14 08:33:14;;;;;;;21.98;9.68;;;17.70;42.70;;;;;;5110623;28;20242;-67
2023/02/14 08:35:41;;;;;;;14.70;9.93;;;17.70;42.70;;;;;;5101197;28;20282;-67
2023/02/14 08:38:10;;;;;;;16.60;8.57;;;17.80;42.70;;;;;;5109733;28;20233;-67
2023/02/14 08:40:37;;;;;;;11.63;8.88;;;17.80;42.80;;;;;;5106114;28;20290;-67
2023/02/14 08:43:07;;;;;;;14.13;8.23;;;17.90;42.90;;;;;;5108245;28;20189;-67
2023/02/14 08:45:35;;;;;;;16.65;9.65;;;17.90;42.80;;;;;;5110584;28;20224;-67
2023/02/14 08:48:04;;;;;;;13.45;9.88;;;17.90;42.70;;;;;;5110678;28;20204;-67
2023/02/14 08:50:31;;;;;;;16.15;9.90;;;18.00;42.60;;;;;;5110436;27;20216;-67
2023/02/14 08:52:59;;;;;;;14.95;8.75;;;18.00;42.60;;;;;;5110260;28;20185;-67
2023/02/14 08:55:27;;;;;;;14.98;8.98;;;18.00;42.70;;;;;;5109306;28;21009;-67
2023/02/14 08:57:56;;;;;;;18.30;9.20;;;18.00;42.90;;;;;;5097274;28;20955;-67
2023/02/14 09:00:25;;;;;;;20.40;10.05;;;18.10;43.00;;;;;;5079665;28;20315;-67
2023/02/14 09:02:53;;;;;;;16.80;9.07;;;18.10;43.00;;;;;;5092554;27;20190;-66
2023/02/14 09:05:22;;;;;;;15.23;9.50;;;18.10;42.80;;;;;;5094571;27;20192;-68
2023/02/14 09:07:49;;;;;;;23.27;8.73;;;18.20;42.80;;;;;;5094738;27;20715;-67
2023/02/14 09:10:17;;;;;;;13.70;8.80;;;18.10;42.70;;;;;;5099491;28;20198;-67
2023/02/14 09:12:46;;;;;;;34.90;9.05;;;18.20;42.70;;;;;;5099044;27;20255;-67
2023/02/14 09:15:17;;;;;;;46.58;22.75;;;18.20;42.60;;;;;;5094052;28;20198;-67
2023/02/14 09:17:54;;;;;;;36.80;16.20;;;18.20;42.60;;;;;;5071494;28;20225;-66
2023/02/14 09:20:25;;;;;;;31.35;13.23;;;18.20;42.40;;;;;;5091873;28;20198;-66
2023/02/14 09:22:57;;;;;;;25.75;13.25;;;18.20;42.40;;;;;;5090690;28;20198;-66
2023/02/14 09:25:27;;;;;;;16.58;11.38;;;18.20;42.50;;;;;;5086996;27;20206;-66
2023/02/14 09:28:02;;;;;;;22.33;10.73;;;18.20;42.40;;;;;;5013260;28;20323;-66
2023/02/14 09:30:30;;;;;;;20.33;10.77;;;18.20;42.30;;;;;;5002301;28;20203;-67
2023/02/14 09:33:03;;;;;;;16.65;9.57;;;18.20;42.30;;;;;;5052397;28;20692;-67
2023/02/14 09:35:38;;;;;;;18.73;9.60;;;18.30;42.30;;;;;;5011225;28;20223;-67
2023/02/14 09:38:06;;;;;;;14.85;9.07;;;18.20;42.30;;;;;;5050977;28;20245;-67
2023/02/14 09:40:34;;;;;;;19.38;9.40;;;18.20;42.30;;;;;;5045883;28;20230;-67
2023/02/14 09:43:10;;;;;;;14.02;9.18;;;18.30;42.40;;;;;;5046148;28;20264;-67
2023/02/14 09:45:38;;;;;;;14.23;9.23;;;18.20;42.30;;;;;;5058427;28;20301;-67
2023/02/14 09:48:27;;;;;;;17.80;8.55;;;18.20;42.20;;;;;;5040350;28;20279;-67
2023/02/14 09:50:59;;;;;;;12.95;8.48;;;18.20;42.20;;;;;;5049998;28;20241;-67
2023/02/14 09:53:32;;;;;;;16.00;8.70;;;18.20;42.30;;;;;;5054118;28;20209;-67
2023/02/14 09:56:09;;;;;;;12.45;8.05;;;18.20;42.20;;;;;;5035769;28;20299;-67
2023/02/14 09:58:40;;;;;;;13.23;8.55;;;18.20;42.20;;;;;;5064552;28;20339;-67
2023/02/14 10:01:17;;;;;;;12.57;7.90;;;18.20;42.30;;;;;;5093579;28;20221;-67
2023/02/14 10:04:21;;;;;;;14.32;8.82;;;18.20;42.20;;;;;;5097987;28;20217;-67
2023/02/14 10:06:57;;;;;;;13.80;8.00;;;18.20;42.20;;;;;;5094212;28;20216;-67
2023/02/14 10:09:56;;;;;;;16.23;7.80;;;18.20;42.20;;;;;;5069920;28;20216;-67
2023/02/14 10:12:29;;;;;;;14.15;7.97;;;18.20;42.20;;;;;;5079321;28;20256;-67
2023/02/14 10:15:17;;;;;;;13.15;8.35;;;18.20;42.20;;;;;;5091575;28;20197;-67
2023/02/14 10:17:48;;;;;;;15.52;8.30;;;18.20;42.20;;;;;;5095222;27;20229;-67
2023/02/14 10:20:24;;;;;;;11.40;7.82;;;18.20;42.20;;;;;;5049847;28;20260;-67
2023/02/14 10:22:59;;;;;;;9.93;7.97;;;18.20;42.20;;;;;;5093692;28;20615;-67
2023/02/14 10:25:31;;;;;;;10.68;7.78;;;18.20;42.20;;;;;;5094993;28;20196;-67
2023/02/14 10:28:01;;;;;;;9.75;7.53;;;18.20;42.20;;;;;;5093043;28;20847;-67
2023/02/14 10:30:37;;;;;;;12.18;8.50;;;18.20;42.20;;;;;;5094054;28;20197;-67
2023/02/14 10:33:13;;;;;;;9.48;7.68;;;18.20;42.20;;;;;;5099139;28;20197;-67
2023/02/14 10:35:46;;;;;;;10.25;7.88;;;18.20;42.20;;;;;;5097498;28;20298;-67
2023/02/14 10:38:28;;;;;;;11.77;8.30;;;18.20;42.20;;;;;;5094603;28;20223;-68
2023/02/14 10:41:13;;;;;;;11.35;7.68;;;18.20;42.20;;;;;;5088769;28;20217;-68
2023/02/14 10:43:48;;;;;;;18.33;7.57;;;18.20;42.20;;;;;;5080116;28;20985;-67
2023/02/14 10:46:34;;;;;;;10.00;7.43;;;18.20;42.20;;;;;;5095640;28;20299;-67
2023/02/14 10:49:14;;;;;;;11.77;7.13;;;18.20;42.20;;;;;;5044563;28;20746;-67
2023/02/14 10:51:51;;;;;;;15.95;7.75;;;18.20;42.20;;;;;;5093305;28;20224;-67
2023/02/14 10:54:27;;;;;;;12.70;7.97;;;18.20;42.20;;;;;;5062775;28;20658;-67
2023/02/14 10:57:00;;;;;;;9.32;6.30;;;18.20;42.20;;;;;;5093103;28;20225;-67
2023/02/14 10:59:35;;;;;;;9.20;7.38;;;18.20;42.20;;;;;;5101819;28;20227;-67
2023/02/14 11:02:08;;;;;;;13.05;7.07;;;18.20;42.20;;;;;;5097948;27;20244;-67
2023/02/14 11:04:36;;;;;;;13.15;7.30;;;18.20;42.20;;;;;;5075107;28;20710;-67
2023/02/14 11:07:03;;;;;;;9.82;6.88;;;18.20;42.20;;;;;;5096153;27;20224;-67
2023/02/14 11:09:32;;;;;;;9.00;7.05;;;18.20;42.20;;;;;;5094849;27;20198;-67
2023/02/14 11:12:00;;;;;;;11.02;6.32;;;18.20;42.20;;;;;;5098588;27;20218;-67
2023/02/14 11:14:31;;;;;;;11.23;7.35;;;18.20;42.30;;;;;;5087696;27;20242;-67
2023/02/14 11:17:00;;;;;;;11.48;6.88;;;18.30;42.30;;;;;;5097961;27;20213;-67
2023/02/14 11:19:28;;;;;;;8.32;6.60;;;18.30;42.40;;;;;;5095554;28;20302;-68
2023/02/14 11:21:57;;;;;;;12.52;6.43;;;18.30;42.40;;;;;;5096834;27;20218;-67
2023/02/14 11:24:33;;;;;;;11.07;6.50;;;18.30;42.40;;;;;;5094930;27;20194;-67
2023/02/14 11:27:04;;;;;;;9.98;6.25;;;18.30;42.30;;;;;;5098998;28;20216;-67
2023/02/14 11:29:36;;;;;;;10.45;6.50;;;18.40;42.40;;;;;;5095938;27;20197;-67
2023/02/14 11:32:10;;;;;;;8.70;6.22;;;18.40;42.40;;;;;;5095614;27;20628;-67
2023/02/14 11:34:41;;;;;;;11.15;6.85;;;18.30;42.40;;;;;;5095828;28;20225;-67
2023/02/14 11:37:26;;;;;;;9.38;6.13;;;18.40;42.40;;;;;;5100389;27;20232;-67
2023/02/14 11:40:00;;;;;;;10.55;7.15;;;18.40;42.40;;;;;;5079133;28;20313;-67
2023/02/14 11:42:44;;;;;;;8.93;5.85;;;18.40;42.40;;;;;;5102985;28;20312;-67
2023/02/14 11:45:29;;;;;;;8.70;6.30;;;18.40;42.40;;;;;;5076917;28;20562;-67
2023/02/14 11:48:24;;;;;;;10.90;6.32;;;18.40;42.40;;;;;;5087878;27;20221;-67
2023/02/14 11:50:56;;;;;;;10.88;6.28;;;18.40;42.30;;;;;;5047433;27;20213;-67
2023/02/14 11:53:28;;;;;;;7.97;5.65;;;18.40;42.40;;;;;;5087370;27;20210;-68
2023/02/14 11:55:59;;;;;;;7.55;5.93;;;18.30;42.20;;;;;;5090246;27;20217;-67
2023/02/14 11:58:37;;;;;;;9.82;6.07;;;18.30;42.20;;;;;;5089948;27;20312;-67
2023/02/14 12:01:04;;;;;;;7.70;5.75;;;18.40;42.30;;;;;;5092317;27;20322;-67
2023/02/14 12:03:39;;;;;;;6.78;6.07;;;18.30;42.20;;;;;;5085224;27;20263;-67
2023/02/14 12:06:07;;;;;;;8.25;5.93;;;18.40;42.30;;;;;;5089329;27;20218;-67
2023/02/14 12:08:37;;;;;;;10.88;6.18;;;18.40;42.20;;;;;;5088793;28;20945;-67
2023/02/14 12:11:19;;;;;;;7.75;5.88;;;18.40;42.20;;;;;;5084638;27;20217;-67
2023/02/14 12:13:53;;;;;;;9.80;5.75;;;18.30;42.10;;;;;;5087813;27;20213;-67
2023/02/14 12:16:26;;;;;;;9.35;6.07;;;18.40;42.10;;;;;;5086732;28;20221;-67
2023/02/14 12:18:59;;;;;;;8.63;5.13;;;18.30;42.10;;;;;;5091604;27;20220;-67
2023/02/14 12:21:43;;;;;;;7.57;5.85;;;18.30;42.00;;;;;;5086941;28;20624;-67
2023/02/14 12:24:18;;;;;;;8.52;5.80;;;18.30;42.10;;;;;;5085974;27;20206;-67
2023/02/14 12:26:55;;;;;;;7.65;5.82;;;18.40;42.80;;;;;;5084433;28;20726;-67
2023/02/14 12:29:25;;;;;;;7.55;5.72;;;18.30;42.00;;;;;;5093783;27;20198;-67
2023/02/14 12:31:53;;;;;;;11.20;5.57;;;18.40;42.10;;;;;;5088093;27;20241;-68
2023/02/14 12:34:21;;;;;;;9.50;5.82;;;18.40;42.10;;;;;;5091469;28;20254;-68
2023/02/14 12:37:11;;;;;;;7.93;5.40;;;18.40;42.10;;;;;;5100663;28;20320;-67
2023/02/14 12:39:56;;;;;;;9.73;5.47;;;18.40;42.10;;;;;;5099390;28;20274;-67
2023/02/14 12:42:39;;;;;;;10.23;5.60;;;18.40;42.00;;;;;;5094071;27;20952;-67
2023/02/14 12:45:17;;;;;;;9.75;5.72;;;18.40;41.90;;;;;;5101013;28;20213;-67
2023/02/14 12:47:55;;;;;;;7.43;5.28;;;18.40;41.80;;;;;;5093340;27;20226;-68
2023/02/14 12:50:39;;;;;;;8.85;5.30;;;18.40;41.80;;;;;;5098787;27;20198;-67
2023/02/14 12:53:34;;;;;;;12.77;5.35;;;18.40;41.80;;;;;;5091039;27;20795;-67
2023/02/14 12:56:14;;;;;;;9.13;5.47;;;18.40;41.80;;;;;;5091621;28;20666;-67
2023/02/14 12:58:51;;;;;;;7.57;6.10;;;18.40;41.60;;;;;;5087074;28;20630;-66
2023/02/14 13:01:34;;;;;;;24.42;6.72;;;18.40;41.60;;;;;;5093773;28;20217;-68
2023/02/14 13:04:22;;;;;;;6.10;4.93;;;18.50;41.60;;;;;;5093343;27;20206;-67
2023/02/14 13:06:56;;;;;;;11.45;5.35;;;18.50;41.70;;;;;;5093471;28;20634;-70
2023/02/14 13:09:33;;;;;;;7.72;5.70;;;18.50;41.50;;;;;;5088339;27;20695;-70
2023/02/14 13:12:13;;;;;;;10.43;5.85;;;18.50;41.40;;;;;;5091003;28;20350;-69
2023/02/14 13:15:05;;;;;;;6.85;5.40;;;18.60;41.50;;;;;;5088112;27;20205;-70
2023/02/14 13:17:39;;;;;;;14.30;5.63;;;18.60;41.60;;;;;;5093352;27;20233;-71